地図

経路データ

SID SEASON NUMBER BASIN SUBBASIN NAME ISO_TIME NATURE LAT LON WMO_WIND WMO_PRES WMO_AGENCY TRACK_TYPE DIST2LAND LANDFALL IFLAG USA_AGENCY USA_ATCF_ID USA_LAT USA_LON USA_RECORD USA_STATUS USA_WIND USA_PRES USA_SSHS USA_R34_NE USA_R34_SE USA_R34_SW USA_R34_NW USA_R50_NE USA_R50_SE USA_R50_SW USA_R50_NW USA_R64_NE USA_R64_SE USA_R64_SW USA_R64_NW USA_POCI USA_ROCI USA_RMW USA_EYE TOKYO_LAT TOKYO_LON TOKYO_GRADE TOKYO_WIND TOKYO_PRES TOKYO_R50_DIR TOKYO_R50_LONG TOKYO_R50_SHORT TOKYO_R30_DIR TOKYO_R30_LONG TOKYO_R30_SHORT TOKYO_LAND CMA_LAT CMA_LON CMA_CAT CMA_WIND CMA_PRES HKO_LAT HKO_LON HKO_CAT HKO_WIND HKO_PRES NEWDELHI_LAT NEWDELHI_LON NEWDELHI_GRADE NEWDELHI_WIND NEWDELHI_PRES NEWDELHI_CI NEWDELHI_DP NEWDELHI_POCI REUNION_LAT REUNION_LON REUNION_TYPE REUNION_WIND REUNION_PRES REUNION_TNUM REUNION_CI REUNION_RMW REUNION_R34_NE REUNION_R34_SE REUNION_R34_SW REUNION_R34_NW REUNION_R50_NE REUNION_R50_SE REUNION_R50_SW REUNION_R50_NW REUNION_R64_NE REUNION_R64_SE REUNION_R64_SW REUNION_R64_NW BOM_LAT BOM_LON BOM_TYPE BOM_WIND BOM_PRES BOM_TNUM BOM_CI BOM_RMW BOM_R34_NE BOM_R34_SE BOM_R34_SW BOM_R34_NW BOM_R50_NE BOM_R50_SE BOM_R50_SW BOM_R50_NW BOM_R64_NE BOM_R64_SE BOM_R64_SW BOM_R64_NW BOM_ROCI BOM_POCI BOM_EYE BOM_POS_METHOD BOM_PRES_METHOD NADI_LAT NADI_LON NADI_CAT NADI_WIND NADI_PRES WELLINGTON_LAT WELLINGTON_LON WELLINGTON_WIND WELLINGTON_PRES DS824_LAT DS824_LON DS824_STAGE DS824_WIND DS824_PRES TD9636_LAT TD9636_LON TD9636_STAGE TD9636_WIND TD9636_PRES TD9635_LAT TD9635_LON TD9635_WIND TD9635_PRES TD9635_ROCI NEUMANN_LAT NEUMANN_LON NEUMANN_CLASS NEUMANN_WIND NEUMANN_PRES MLC_LAT MLC_LON MLC_CLASS MLC_WIND MLC_PRES USA_GUST BOM_GUST BOM_GUST_PER REUNION_GUST REUNION_GUST_PER USA_SEAHGT USA_SEARAD_NE USA_SEARAD_SE USA_SEARAD_SW USA_SEARAD_NW STORM_SPEED STORM_DIR
1890282N21286 1890 33 NA NA NOT_NAMED 1890-10-08 18:00:00 TS 20.5000 -74.0000 main 35 35 _____________O -1 20.5000 -74.0000 TS 35 4 350
1890282N21286 1890 33 NA NA NOT_NAMED 1890-10-08 21:00:00 TS 20.7100 -74.0500 main 45 43 _____________P -1 20.7100 -74.0500 TS 35 4 347
1890282N21286 1890 33 NA NA NOT_NAMED 1890-10-09 00:00:00 TS 20.9000 -74.1000 main 43 41 _____________O -1 20.9000 -74.1000 TS 35 4 345
1890282N21286 1890 33 NA NA NOT_NAMED 1890-10-09 03:00:00 TS 21.0575 -74.1500 main 51 51 _____________P -1 21.0575 -74.1500 TS 35 3 343
1890282N21286 1890 33 NA NA NOT_NAMED 1890-10-09 06:00:00 TS 21.2000 -74.2000 main 53 53 _____________O -1 21.2000 -74.2000 TS 35 3 341
1890282N21286 1890 33 NA NA NOT_NAMED 1890-10-09 09:00:00 TS 21.3500 -74.2575 main 70 70 _____________P -1 21.3500 -74.2575 TS 35 3 343
1890282N21286 1890 33 NA NA NOT_NAMED 1890-10-09 12:00:00 TS 21.5000 -74.3000 main 76 76 _____________O -1 21.5000 -74.3000 TS 35 3 355
1890282N21286 1890 33 NA NA NOT_NAMED 1890-10-09 15:00:00 TS 21.6500 -74.2926 main 83 83 _____________P -1 21.6500 -74.2926 TS 35 3 0
1890282N21286 1890 33 NA NA NOT_NAMED 1890-10-09 18:00:00 TS 21.8000 -74.3000 main 99 99 _____________O -1 21.8000 -74.3000 TS 35 3 345
1890282N21286 1890 33 NA NA NOT_NAMED 1890-10-09 21:00:00 TS 21.9575 -74.3924 main 123 123 _____________P -1 21.9575 -74.3924 TS 35 4 329
1890282N21286 1890 33 NA NA NOT_NAMED 1890-10-10 00:00:00 TS 22.1000 -74.5000 main 139 139 _____________O -1 22.1000 -74.5000 TS 35 3 328
1890282N21286 1890 33 NA NA NOT_NAMED 1890-10-10 03:00:00 TS 22.2000 -74.5501 main 154 154 _____________P -1 22.2000 -74.5501 TS 35 2 335
1890282N21286 1890 33 NA NA NOT_NAMED 1890-10-10 06:00:00 TS 22.3000 -74.6000 main 163 163 _____________O -1 22.3000 -74.6000 TS 35 3 331
1890282N21286 1890 33 NA NA NOT_NAMED 1890-10-10 09:00:00 TS 22.4500 -74.7000 main 187 186 _____________P -1 22.4500 -74.7000 TS 35 4 329
1890282N21286 1890 33 NA NA NOT_NAMED 1890-10-10 12:00:00 TS 22.6000 -74.8000 main 197 197 _____________O -1 22.6000 -74.8000 TS 35 3 333
1890282N21286 1890 33 NA NA NOT_NAMED 1890-10-10 15:00:00 TS 22.7075 -74.8426 main 207 203 _____________P -1 22.7075 -74.8426 TS 35 2 335
1890282N21286 1890 33 NA NA NOT_NAMED 1890-10-10 18:00:00 TS 22.8000 -74.9000 main 213 210 _____________O -1 22.8000 -74.9000 TS 35 3 316
1890282N21286 1890 33 NA NA NOT_NAMED 1890-10-10 21:00:00 TS 22.9000 -75.0425 main 221 218 _____________P -1 22.9000 -75.0425 TS 35 3 306
1890282N21286 1890 33 NA NA NOT_NAMED 1890-10-11 00:00:00 TS 23.0000 -75.2000 main 226 221 _____________O -1 23.0000 -75.2000 TS 35 3 309
1890282N21286 1890 33 NA NA NOT_NAMED 1890-10-11 03:00:00 TS 23.1000 -75.3075 main 231 227 _____________P -1 23.1000 -75.3075 TS 35 3 317
1890282N21286 1890 33 NA NA NOT_NAMED 1890-10-11 06:00:00 TS 23.2000 -75.4000 main 238 238 _____________O -1 23.2000 -75.4000 TS 35 3 318
1890282N21286 1890 33 NA NA NOT_NAMED 1890-10-11 09:00:00 TS 23.3000 -75.5000 main 242 242 _____________P -1 23.3000 -75.5000 TS 35 3 317
1890282N21286 1890 33 NA NA NOT_NAMED 1890-10-11 12:00:00 TS 23.4000 -75.6000 main 244 231 _____________O -1 23.4000 -75.6000 TS 35 3 314
1890282N21286 1890 33 NA NA NOT_NAMED 1890-10-11 15:00:00 TS 23.4925 -75.7150 main 231 217 _____________P -1 23.4925 -75.7150 TS 35 3 318
1890282N21286 1890 33 NA NA NOT_NAMED 1890-10-11 18:00:00 TS 23.6000 -75.8000 main 217 212 _____________O -1 23.6000 -75.8000 TS 35 3 339
1890282N21286 1890 33 NA NA NOT_NAMED 1890-10-11 21:00:00 TS 23.7425 -75.8225 main 212 203 _____________P -1 23.7425 -75.8225 TS 35 3 0
1890282N21286 1890 33 NA NA NOT_NAMED 1890-10-12 00:00:00 TS 23.9000 -75.8000 main 203 200 _____________O -1 23.9000 -75.8000 TS 35 3 6
1890282N21286 1890 33 NA NA NOT_NAMED 1890-10-12 03:00:00 TS 24.0500 -75.7725 main 200 197 _____________P -1 24.0500 -75.7725 TS 35 3 16
1890282N21286 1890 33 NA NA NOT_NAMED 1890-10-12 06:00:00 TS 24.2000 -75.7000 main 205 203 _____________O -1 24.2000 -75.7000 TS 35 4 33
1890282N21286 1890 33 NA NA NOT_NAMED 1890-10-12 09:00:00 TS 24.3575 -75.5576 main 212 212 _____________P -1 24.3575 -75.5576 TS 35 4 42
1890282N21286 1890 33 NA NA NOT_NAMED 1890-10-12 12:00:00 TS 24.5000 -75.4000 main 232 232 _____________O -1 24.5000 -75.4000 TS 35 4 45
1890282N21286 1890 33 NA NA NOT_NAMED 1890-10-12 15:00:00 TS 24.6075 -75.2850 main 242 242 _____________P -1 24.6075 -75.2850 TS 35 3 42
1890282N21286 1890 33 NA NA NOT_NAMED 1890-10-12 18:00:00 TS 24.7000 -75.2000 main 253 253 _____________O -1 24.7000 -75.2000 TS 35 2 34
1890282N21286 1890 33 NA NA NOT_NAMED 1890-10-12 21:00:00 TS 24.8075 -75.1425 main 264 264 _____________P -1 24.8075 -75.1425 TS 35 2 25
1890282N21286 1890 33 NA NA NOT_NAMED 1890-10-13 00:00:00 TS 24.9000 -75.1000 main 266 266 _____________O -1 24.9000 -75.1000 TS 35 2 27
1890282N21286 1890 33 NA NA NOT_NAMED 1890-10-13 03:00:00 TS 24.9575 -75.0500 main 278 278 _____________P -1 24.9575 -75.0500 TS 37 1 40
1890282N21286 1890 33 NA NA NOT_NAMED 1890-10-13 06:00:00 TS 25.0000 -75.0000 main 278 278 _____________O -1 25.0000 -75.0000 TS 40 1 42
1890282N21286 1890 33 NA NA NOT_NAMED 1890-10-13 09:00:00 TS 25.0500 -74.9500 main 290 290 _____________P -1 25.0500 -74.9500 TS 42 1 40
1890282N21286 1890 33 NA NA NOT_NAMED 1890-10-13 12:00:00 TS 25.1000 -74.9000 main 290 290 _____________O -1 25.1000 -74.9000 TS 45 1 28
1890282N21286 1890 33 NA NA NOT_NAMED 1890-10-13 15:00:00 TS 25.1424 -74.8949 main 290 290 _____________P -1 25.1424 -74.8949 TS 47 1 40
1890282N21286 1890 33 NA NA NOT_NAMED 1890-10-13 18:00:00 TS 25.2000 -74.8000 main 302 302 _____________O -1 25.2000 -74.8000 TS 50 4 66
1890282N21286 1890 33 NA NA NOT_NAMED 1890-10-13 21:00:00 TS 25.3001 -74.4951 main 334 334 _____________P -1 25.3001 -74.4951 TS 55 7 72
1890282N21286 1890 33 NA NA NOT_NAMED 1890-10-14 00:00:00 TS 25.4000 -74.1000 main 376 376 _____________O -1 25.4000 -74.1000 TS 60 7 77
1890282N21286 1890 33 NA NA NOT_NAMED 1890-10-14 03:00:00 TS 25.4499 -73.7498 main 415 415 _____________P -1 25.4499 -73.7498 TS 65 6 81
1890282N21286 1890 33 NA NA NOT_NAMED 1890-10-14 06:00:00 TS 25.5000 -73.4000 main 447 447 _____________O -1 25.5000 -73.4000 HU 70 6 77
1890282N21286 1890 33 NA NA NOT_NAMED 1890-10-14 09:00:00 TS 25.5999 -73.0501 main 479 479 _____________P -1 25.5999 -73.0501 HU 72 7 72
1890282N21286 1890 33 NA NA NOT_NAMED 1890-10-14 12:00:00 TS 25.7000 -72.7000 main 503 503 _____________O -1 25.7000 -72.7000 HU 75 7 76
1890282N21286 1890 33 NA NA NOT_NAMED 1890-10-14 15:00:00 TS 25.7650 -72.3350 main 519 519 _____________P -1 25.7650 -72.3350 HU 77 6 81
1890282N21286 1890 33 NA NA NOT_NAMED 1890-10-14 18:00:00 TS 25.8000 -72.0000 main 524 524 _____________O -1 25.8000 -72.0000 HU 80 5 86
1890282N21286 1890 33 NA NA NOT_NAMED 1890-10-14 21:00:00 TS 25.8074 -71.7349 main 530 530 _____________P -1 25.8074 -71.7349 HU 82 5 90
1890282N21286 1890 33 NA NA NOT_NAMED 1890-10-15 00:00:00 TS 25.8000 -71.5000 main 536 536 _____________O -1 25.8000 -71.5000 HU 85 4 91
1890282N21286 1890 33 NA NA NOT_NAMED 1890-10-15 03:00:00 TS 25.8000 -71.2500 main 545 545 _____________P -1 25.8000 -71.2500 HU 87 5 90
1890282N21286 1890 33 NA NA NOT_NAMED 1890-10-15 06:00:00 TS 25.8000 -71.0000 main 553 553 _____________O -1 25.8000 -71.0000 HU 90 5 91
1890282N21286 1890 33 NA NA NOT_NAMED 1890-10-15 09:00:00 TS 25.7925 -70.7500 main 565 565 _____________P -1 25.7925 -70.7500 HU 90 5 90
1890282N21286 1890 33 NA NA NOT_NAMED 1890-10-15 12:00:00 TS 25.8000 -70.5000 main 573 573 _____________O -1 25.8000 -70.5000 HU 90 5 83
1890282N21286 1890 33 NA NA NOT_NAMED 1890-10-15 15:00:00 TS 25.8500 -70.2426 main 587 587 _____________P -1 25.8500 -70.2426 HU 90 5 77
1890282N21286 1890 33 NA NA NOT_NAMED 1890-10-15 18:00:00 TS 25.9000 -70.0000 main 607 607 _____________O -1 25.9000 -70.0000 HU 90 4 82
1890282N21286 1890 33 NA NA NOT_NAMED 1890-10-15 21:00:00 TS 25.9074 -69.7925 main 618 618 _____________P -1 25.9074 -69.7925 HU 90 4 90
1890282N21286 1890 33 NA NA NOT_NAMED 1890-10-16 00:00:00 TS 25.9000 -69.6000 main 629 629 _____________O -1 25.9000 -69.6000 HU 90 4 91
1890282N21286 1890 33 NA NA NOT_NAMED 1890-10-16 03:00:00 TS 25.9000 -69.4000 main 640 640 _____________P -1 25.9000 -69.4000 HU 95 4 90
1890282N21286 1890 33 NA NA NOT_NAMED 1890-10-16 06:00:00 NR 25.9000 -69.2000 main 652 652 _____________O -1 25.9000 -69.2000 MH 100 4 90
1890282N21286 1890 33 NA NA NOT_NAMED 1890-10-16 09:00:00 NR 25.9000 -68.9925 main 664 664 _____________P -1 25.9000 -68.9925 MH 100 4 90
1890282N21286 1890 33 NA NA NOT_NAMED 1890-10-16 12:00:00 NR 25.9000 -68.8000 main 677 668 _____________O -1 25.9000 -68.8000 MH 100 2 119
1890282N21286 1890 33 NA NA NOT_NAMED 1890-10-16 15:00:00 NR 25.8152 -68.8277 main 668 668 _____________P -1 25.8152 -68.8277 MH 100 3 90
1890282N21286 1890 33 NA NA NOT_NAMED 1890-10-16 18:00:00 NR 25.9000 -68.5000 main 697 697 _____________O -1 25.9000 -68.5000 MH 100 963 15 68
1890282N21286 1890 33 NA NA NOT_NAMED 1890-10-16 21:00:00 NR 26.3702 -67.2822 main 808 808 _____________P -1 26.3702 -67.2822 MH 100 27 66
1890282N21286 1890 33 NA NA NOT_NAMED 1890-10-17 00:00:00 NR 27.0000 -65.7000 main 935 935 _____________O -1 27.0000 -65.7000 MH 100 30 66
1890282N21286 1890 33 NA NA NOT_NAMED 1890-10-17 03:00:00 NR 27.5509 -64.2379 main 1038 1038 _____________P -1 27.5509 -64.2379 MH 100 26 65
1890282N21286 1890 33 NA NA NOT_NAMED 1890-10-17 06:00:00 NR 28.1000 -63.0000 main 1116 1116 _____________O -1 28.1000 -63.0000 MH 100 21 58
1890282N21286 1890 33 NA NA NOT_NAMED 1890-10-17 09:00:00 NR 28.6551 -62.2430 main 1201 1201 _____________P -1 28.6551 -62.2430 MH 95 16 46
1890282N21286 1890 33 NA NA NOT_NAMED 1890-10-17 12:00:00 TS 29.2000 -61.7000 main 1270 1270 _____________O -1 29.2000 -61.7000 HU 90 14 45
1890282N21286 1890 33 NA NA NOT_NAMED 1890-10-17 15:00:00 TS 29.6004 -61.1414 main 1331 1331 _____________P -1 29.6004 -61.1414 HU 85 15 49
1890282N21286 1890 33 NA NA NOT_NAMED 1890-10-17 18:00:00 TS 30.2000 -60.4000 main 1419 1419 _____________O -1 30.2000 -60.4000 HU 80 24 45
1890282N21286 1890 33 NA NA NOT_NAMED 1890-10-17 21:00:00 TS 31.3039 -59.2005 main 1460 1379 _____________P -1 31.3039 -59.2005 HU 75 33 43
1890282N21286 1890 33 NA NA NOT_NAMED 1890-10-18 00:00:00 TS 32.6000 -57.8000 main 1377 1329 _____________O -1 32.6000 -57.8000 HU 70 34 43
1890282N21286 1890 33 NA NA NOT_NAMED 1890-10-18 03:00:00 TS 33.7493 -56.4744 main 1329 1257 _____________P -1 33.7493 -56.4744 HU 65 32 43
1890282N21286 1890 33 NA NA NOT_NAMED 1890-10-18 06:00:00 TS 34.9000 -55.2000 main 1249 1175 _____________O -1 34.9000 -55.2000 TS 60 31 41
1890282N21286 1890 33 NA NA NOT_NAMED 1890-10-18 09:00:00 TS 36.0982 -54.0238 main 1168 1045 _____________P -1 36.0982 -54.0238 TS 55 30 38
1890282N21286 1890 33 NA NA NOT_NAMED 1890-10-18 12:00:00 TS 37.3000 -52.9000 main 1034 929 _____________O -1 37.3000 -52.9000 TS 50 29 38
1890282N21286 1890 33 NA NA NOT_NAMED 1890-10-18 15:00:00 TS 38.3723 -51.7976 main 919 814 _____________P -1 38.3723 -51.7976 TS 45 29 38
1890282N21286 1890 33 NA NA NOT_NAMED 1890-10-18 18:00:00 TS 39.6000 -50.6000 main 806 693 _____________O -1 39.6000 -50.6000 TS 40 35 37
1890282N21286 1890 33 NA NA NOT_NAMED 1890-10-18 21:00:00 TS 41.2127 -49.0553 main 683 602 _____________P -1 41.2127 -49.0553 TS 40 41 34
1890282N21286 1890 33 NA NA NOT_NAMED 1890-10-19 00:00:00 TS 43.0000 -47.5000 main 600 565 _____________O -1 43.0000 -47.5000 TS 40 41 30
1890282N21286 1890 33 NA NA NOT_NAMED 1890-10-19 03:00:00 TS 44.7660 -46.2547 main 562 559 _____________P -1 44.7660 -46.2547 TS 37 39 25
1890282N21286 1890 33 NA NA NOT_NAMED 1890-10-19 06:00:00 TS 46.5000 -45.2000 main 569 _____________O -1 46.5000 -45.2000 TS 35 38 23

IBTrACS Databaseについて

本データベースは、米国NOAAが公開する1842年以降の世界の熱帯低気圧のベストトラックデータアーカイブInternational Best Track Archive for Climate Stewardship (IBTrACS)を、ウェブで閲覧しやすい形式に変換したものです。

最終更新日:2021-11-26